Time;durP1;ratioP1;P1;durP2;ratioP2;P2;SDS_P1;SDS_P2;PMS_P1;PMS_P2;Temp;Humidity;BMP_temperature;BMP_pressure;BME280_temperature;BME280_humidity;BME280_pressure;Samples;Min_cycle;Max_cycle;Signal;HPM_P1;HPM_P2
2022/02/13 07:58:34;;;;;;;42.50;9.90;;;;;;;4.31;100.00;100373.91;5793831;24;20026;31
2022/02/13 09:44:55;;;;;;;48.35;11.23;;;;;;;4.71;100.00;100356.13;5653050;24;20146;-84
2022/02/13 10:26:20;;;;;;;64.60;13.27;;;;;;;4.91;100.00;100373.38;5387083;24;20056;-84
2022/02/13 11:12:45;;;;;;;53.13;16.40;;;;;;;3.78;100.00;100166.84;5201031;24;20055;-85
2022/02/13 11:15:17;;;;;;;48.63;13.77;;;;;;;3.80;100.00;100138.22;4777573;30;20020;-83
2022/02/13 11:17:46;;;;;;;67.72;16.05;;;;;;;4.95;100.00;100315.22;4784594;29;20016;-84
2022/02/13 11:40:53;;;;;;;49.50;14.60;;;;;;;3.94;100.00;100134.84;5013150;24;20064;-84
2022/02/13 11:43:44;;;;;;;64.60;15.85;;;;;;;3.30;100.00;100047.09;5066599;24;20026;-84
2022/02/13 11:48:45;;;;;;;46.28;14.23;;;;;;;4.83;100.00;100284.59;5063250;24;20039;-85
2022/02/13 12:04:08;;;;;;;38.25;12.38;;;;;;;4.96;100.00;100300.88;4791903;27;20048;-85
2022/02/13 12:06:34;;;;;;;50.38;13.65;;;;;;;4.97;100.00;100296.34;4778401;30;20031;-83
2022/02/13 12:09:05;;;;;;;40.45;13.85;;;;;;;4.92;100.00;100287.06;4801777;29;20043;-84
2022/02/13 12:11:39;;;;;;;41.38;14.80;;;;;;;4.94;100.00;100293.06;4794010;29;20023;-84
2022/02/13 12:14:20;;;;;;;35.65;13.45;;;;;;;5.02;100.00;100292.16;4807430;29;20011;-84
2022/02/13 12:17:03;;;;;;;39.80;14.40;;;;;;;5.06;100.00;100274.81;4790641;29;20016;-84
2022/02/13 12:19:34;;;;;;;37.92;13.77;;;;;;;5.11;100.00;100269.78;4803547;29;20026;-83
2022/02/13 12:22:03;;;;;;;39.05;14.35;;;;;;;5.12;100.00;100257.28;4988144;24;20054;-84
2022/02/13 12:34:54;;;;;;;37.58;12.77;;;;;;;5.24;100.00;100247.03;5142296;24;20096;-82
2022/02/13 12:39:55;;;;;;;32.08;11.60;;;;;;;4.09;100.00;100081.72;5050193;24;20088;-83
2022/02/13 12:42:28;;;;;;;34.55;12.88;;;;;;;3.95;100.00;100062.00;5631750;24;20051;-81
2022/02/13 12:57:53;;;;;;;26.42;10.27;;;;;;;3.85;100.00;100066.69;5267211;24;20064;-84
2022/02/13 13:36:31;;;;;;;31.33;12.07;;;;;;;3.54;100.00;99990.34;4766815;30;20032;-82
2022/02/13 13:38:56;;;;;;;28.33;11.18;;;;;;;4.98;100.00;100204.72;4990377;24;20142;-80
2022/02/13 13:41:32;;;;;;;28.40;11.43;;;;;;;5.00;100.00;100216.88;4790125;29;20023;-83
2022/02/13 13:44:13;;;;;;;29.98;12.55;;;;;;;4.88;100.00;100196.97;5224699;24;20055;-81
2022/02/13 13:46:38;;;;;;;28.40;11.90;;;;;;;4.99;100.00;100219.72;4791458;29;20057;-83
2022/02/13 13:49:04;;;;;;;23.30;11.63;;;;;;;4.96;100.00;100210.22;4793720;30;20031;-82
2022/02/13 13:51:29;;;;;;;28.08;11.68;;;;;;;4.92;100.00;100204.41;4794183;29;20048;-82
2022/02/13 13:53:55;;;;;;;27.80;11.52;;;;;;;4.96;100.00;100202.22;4789062;30;20036;-83
2022/02/13 13:56:20;;;;;;;25.52;11.40;;;;;;;4.98;100.00;100207.38;4789706;30;20021;-84
2022/02/13 13:58:45;;;;;;;28.27;11.88;;;;;;;4.97;100.00;100193.22;4797325;29;20015;-83
2022/02/13 14:01:11;;;;;;;22.25;11.07;;;;;;;4.98;100.00;100186.06;4796341;29;20066;-82
2022/02/13 14:03:36;;;;;;;23.30;11.57;;;;;;;4.92;100.00;100183.09;4782372;30;20023;-83
2022/02/13 14:06:02;;;;;;;31.73;11.60;;;;;;;5.01;100.00;100218.53;5099094;24;20083;-82
2022/02/13 14:08:27;;;;;;;23.23;11.18;;;;;;;3.94;100.00;100015.06;4789976;29;20024;-82
2022/02/13 14:10:54;;;;;;;25.63;10.77;;;;;;;4.98;100.00;100181.56;5123571;24;20063;-80
2022/02/13 14:13:19;;;;;;;21.40;11.15;;;;;;;4.99;100.00;100196.53;4786082;29;20027;-83
2022/02/13 14:18:20;;;;;;;26.10;11.43;;;;;;;3.40;100.00;99953.84;4907990;24;20053;-84
2022/02/13 14:20:46;;;;;;;22.33;10.95;;;;;;;3.25;100.00;99921.84;4767396;29;20103;-83
2022/02/13 14:23:13;;;;;;;29.13;11.63;;;;;;;3.95;100.00;100022.88;5458314;24;20029;-81
2022/02/13 14:25:39;;;;;;;29.25;11.85;;;;;;;3.39;100.00;99921.09;4805064;29;20029;-81
2022/02/13 14:28:04;;;;;;;29.25;13.02;;;;;;;3.87;100.00;100020.25;4802474;29;20055;-83
2022/02/13 14:30:30;;;;;;;32.67;13.60;;;;;;;3.32;100.00;99924.63;4807891;29;20043;-82
2022/02/13 14:32:56;;;;;;;26.38;12.90;;;;;;;3.30;100.00;99941.56;4808172;29;20031;-81
2022/02/13 14:35:21;;;;;;;28.45;12.20;;;;;;;4.89;100.00;100177.28;4809257;29;20015;-83
2022/02/13 14:37:49;;;;;;;25.73;12.88;;;;;;;3.74;100.00;100018.19;4934324;24;20048;-84
2022/02/13 14:40:15;;;;;;;32.55;13.85;;;;;;;3.46;100.00;99969.94;5068981;24;20044;-82
2022/02/13 14:42:41;;;;;;;26.55;13.30;;;;;;;4.89;100.00;100194.09;4787202;29;20089;-83
2022/02/13 14:45:08;;;;;;;33.35;14.60;;;;;;;4.95;100.00;100193.41;4777638;29;20062;-83
2022/02/13 14:47:35;;;;;;;30.65;15.77;;;;;;;4.95;100.00;100192.56;4779861;29;20017;-83
2022/02/13 14:52:36;;;;;;;40.35;15.68;;;;;;;4.92;100.00;100179.59;5125948;24;20450;-84
2022/02/13 14:55:04;;;;;;;38.53;15.40;;;;;;;3.36;100.00;99917.97;5431008;24;20088;-75
2022/02/13 14:57:31;;;;;;;38.90;16.60;;;;;;;3.46;100.00;99955.81;5262204;24;20039;-83
2022/02/13 14:59:56;;;;;;;35.20;15.98;;;;;;;4.81;100.00;100177.34;5268804;24;20128;-83
2022/02/13 15:02:23;;;;;;;35.20;16.70;;;;;;;3.87;100.00;100030.91;4767122;30;20032;-81
2022/02/13 15:04:50;;;;;;;39.75;17.55;;;;;;;4.88;100.00;100191.63;4779753;29;20044;-83
2022/02/13 15:07:16;;;;;;;35.78;16.42;;;;;;;3.16;100.00;99917.56;4777195;30;20036;-83
2022/02/13 15:09:41;;;;;;;25.67;13.50;;;;;;;3.53;100.00;99970.06;4868270;24;20071;-83
2022/02/13 15:12:08;;;;;;;31.45;16.52;;;;;;;3.43;100.00;99950.84;4807194;29;20022;-83
2022/02/13 15:14:35;;;;;;;33.10;16.75;;;;;;;3.51;100.00;99948.97;4811470;29;20043;-84
2022/02/13 15:17:01;;;;;;;35.95;16.08;;;;;;;3.23;100.00;99929.16;4800294;29;20106;-84
2022/02/13 15:19:27;;;;;;;36.38;17.05;;;;;;;4.27;100.00;100073.44;4795412;30;20026;-83
2022/02/13 15:21:53;;;;;;;38.10;16.70;;;;;;;3.19;100.00;99922.53;4803752;29;20071;-84
2022/02/13 15:24:19;;;;;;;31.65;16.50;;;;;;;3.40;100.00;99961.81;4812608;29;20038;-81
2022/02/13 15:46:43;;;;;;;42.28;18.35;;;;;;;3.55;100.00;99960.09;4989453;24;20154;-81
2022/02/13 15:49:09;;;;;;;42.15;18.80;;;;;;;3.41;100.00;99936.88;4769749;30;20043;-84
2022/02/13 15:51:34;;;;;;;43.88;19.65;;;;;;;3.01;100.00;99893.53;4782519;29;20071;-83
2022/02/13 15:56:35;;;;;;;41.60;18.30;;;;;;;3.43;100.00;99950.84;5693848;24;20059;-81
2022/02/13 16:04:11;;;;;;;40.00;18.88;;;;;;;3.45;100.00;99922.25;5222861;24;20044;-83
2022/02/13 16:06:36;;;;;;;46.00;19.35;;;;;;;4.06;100.00;100019.00;4776511;30;20066;-83
2022/02/13 16:09:03;;;;;;;40.45;18.45;;;;;;;3.56;100.00;99945.78;4775981;30;20092;-83
2022/02/13 16:11:29;;;;;;;44.67;20.17;;;;;;;3.20;100.00;99898.41;4790883;29;20068;-83
2022/02/13 16:13:55;;;;;;;39.33;18.67;;;;;;;4.71;100.00;100127.75;4790703;29;20053;-83
2022/02/13 16:16:20;;;;;;;36.50;18.17;;;;;;;4.69;100.00;100135.09;4793015;29;20046;-83
2022/02/13 16:18:45;;;;;;;39.53;18.55;;;;;;;4.64;100.00;100123.34;4795950;29;20023;-82
2022/02/13 16:21:11;;;;;;;39.50;20.02;;;;;;;4.63;100.00;100125.16;4797647;29;20110;-82
2022/02/13 16:26:20;;;;;;;48.20;19.50;;;;;;;4.54;100.00;100122.75;4791322;29;20043;-83
2022/02/13 16:28:46;;;;;;;40.92;19.25;;;;;;;4.62;100.00;100138.66;4792488;29;20126;-83
2022/02/13 16:31:11;;;;;;;45.10;20.17;;;;;;;4.53;100.00;100121.88;4780824;29;20011;-83
2022/02/13 16:33:39;;;;;;;48.03;20.75;;;;;;;4.58;100.00;100132.03;4775235;30;20028;-84
2022/02/13 16:36:04;;;;;;;42.38;20.02;;;;;;;4.56;100.00;100113.53;4789762;29;20059;-83
2022/02/13 16:41:07;;;;;;;42.78;21.75;;;;;;;4.58;100.00;100126.69;5042695;24;20099;-84
2022/02/13 16:46:39;;;;;;;41.50;21.10;;;;;;;4.59;100.00;100115.03;5689777;24;21504;31
2022/02/13 16:51:40;;;;;;;45.33;21.23;;;;;;;3.51;100.00;99958.78;5482741;24;20069;-83
2022/02/13 16:56:44;;;;;;;42.00;21.05;;;;;;;4.51;100.00;100097.28;5581682;24;20086;-84
2022/02/13 16:59:11;;;;;;;42.85;21.92;;;;;;;3.16;100.00;99899.78;5128975;24;20042;-83
2022/02/13 17:01:37;;;;;;;43.90;22.45;;;;;;;4.55;100.00;100106.56;4829881;29;20035;-81
2022/02/13 17:04:06;;;;;;;48.50;22.02;;;;;;;4.59;100.00;100107.03;4828616;29;20044;-82
2022/02/13 17:14:18;;;;;;;47.55;22.23;;;;;;;3.22;100.00;99885.78;4903528;24;20455;-81
2022/02/13 17:19:18;;;;;;;49.63;23.33;;;;;;;4.54;100.00;100090.78;5139464;24;20043;-79
2022/02/13 17:21:43;;;;;;;57.42;25.27;;;;;;;4.47;100.00;100087.97;4795475;30;20066;-83
2022/02/13 17:24:09;;;;;;;49.50;23.58;;;;;;;4.55;100.00;100098.56;4785397;30;20100;-79
2022/02/13 17:26:34;;;;;;;51.97;25.55;;;;;;;4.54;100.00;100096.91;4797418;29;20431;-81
2022/02/13 17:29:00;;;;;;;43.78;24.80;;;;;;;4.52;100.00;100084.78;4796897;30;20035;-81
2022/02/13 17:31:29;;;;;;;47.03;24.27;;;;;;;4.43;100.00;100070.66;4798512;30;20036;-81
2022/02/13 17:33:58;;;;;;;46.30;24.00;;;;;;;4.42;100.00;100071.69;4804959;29;20047;-84
2022/02/13 17:36:26;;;;;;;48.42;23.02;;;;;;;4.55;100.00;100090.56;4803020;30;20469;-81
2022/02/13 17:38:53;;;;;;;52.15;25.00;;;;;;;4.54;100.00;100086.25;4779620;29;20016;-79
2022/02/13 17:41:19;;;;;;;53.75;24.42;;;;;;;4.40;100.00;100055.91;4800867;30;20039;-80
2022/02/13 17:43:44;;;;;;;54.33;26.45;;;;;;;4.46;100.00;100065.00;4793028;30;20181;-81
2022/02/13 17:46:13;;;;;;;48.42;24.33;;;;;;;4.54;100.00;100080.94;4789135;30;20134;-80
2022/02/13 17:48:38;;;;;;;48.15;24.17;;;;;;;4.48;100.00;100065.66;4792251;29;20020;-81
2022/02/13 17:51:04;;;;;;;53.60;24.65;;;;;;;4.52;100.00;100063.47;4794518;29;20509;-80
2022/02/13 17:53:30;;;;;;;54.95;24.27;;;;;;;4.33;100.00;100030.13;5258943;24;20106;-83
2022/02/13 17:55:55;;;;;;;47.95;24.95;;;;;;;4.27;100.00;100012.19;4812611;29;20032;-78
2022/02/13 17:58:22;;;;;;;51.75;26.13;;;;;;;4.54;100.00;100042.81;4811295;29;20046;-82
2022/02/13 18:00:47;;;;;;;63.38;26.75;;;;;;;3.18;100.00;99852.59;4864442;24;20078;-84
2022/02/13 18:03:15;;;;;;;48.38;25.70;;;;;;;4.53;100.00;100043.78;4955643;24;20003;-82
2022/02/13 18:05:42;;;;;;;42.47;24.77;;;;;;;4.53;100.00;100044.63;4770183;29;20490;-83
2022/02/13 18:08:08;;;;;;;48.97;24.83;;;;;;;4.51;100.00;100041.31;4779417;29;20052;-85
2022/02/13 18:10:34;;;;;;;54.28;26.15;;;;;;;4.47;100.00;100040.03;4777565;29;20020;-83
2022/02/13 18:20:47;;;;;;;51.63;26.38;;;;;;;2.72;100.00;99771.97;5013220;24;20277;-84
2022/02/13 18:23:12;;;;;;;52.13;26.88;;;;;;;4.43;100.00;100026.22;4777677;30;20028;-84
2022/02/13 18:25:38;;;;;;;54.33;28.52;;;;;;;2.70;100.00;99758.00;5084723;24;20094;-84
2022/02/13 18:28:05;;;;;;;49.65;26.52;;;;;;;3.01;100.00;99809.34;4792546;29;20455;-82
2022/02/13 18:33:10;;;;;;;61.10;27.88;;;;;;;3.96;100.00;99950.00;4804002;30;20054;-82
2022/02/13 18:35:37;;;;;;;61.15;29.50;;;;;;;4.45;100.00;100036.72;4992799;24;20052;-81
2022/02/13 18:40:39;;;;;;;45.78;27.95;;;;;;;4.43;100.00;100046.69;5238474;24;20031;-83
2022/02/13 18:53:27;;;;;;;56.78;29.70;;;;;;;2.72;100.00;99754.19;5795373;24;20025;-81
2022/02/13 18:55:52;;;;;;;50.35;28.42;;;;;;;2.56;100.00;99720.56;4778239;30;20052;-82
2022/02/13 18:58:18;;;;;;;53.90;28.52;;;;;;;3.08;100.00;99798.84;4767950;30;20059;-82
2022/02/13 19:00:43;;;;;;;53.80;30.55;;;;;;;3.02;100.00;99800.34;4929362;24;20055;-81
2022/02/13 19:03:10;;;;;;;57.03;29.70;;;;;;;2.62;100.00;99728.84;4796742;29;20043;-82
2022/02/13 19:05:36;;;;;;;61.15;29.60;;;;;;;3.19;100.00;99822.34;4792849;30;20038;-83
2022/02/13 19:08:04;;;;;;;61.65;31.35;;;;;;;2.78;100.00;99761.47;4789620;30;20582;-83
2022/02/13 19:10:30;;;;;;;60.08;30.35;;;;;;;2.72;100.00;99756.84;4790301;30;20056;-83
2022/02/13 19:12:59;;;;;;;49.60;28.45;;;;;;;2.75;100.00;99775.09;4792381;30;20016;-83
2022/02/13 19:15:26;;;;;;;55.42;29.25;;;;;;;4.22;100.00;99992.25;4791872;30;20016;-83
2022/02/13 19:17:51;;;;;;;63.60;32.25;;;;;;;4.09;100.00;99965.41;4794016;29;20038;-83
2022/02/13 19:20:21;;;;;;;63.22;32.80;;;;;;;3.01;100.00;99789.88;4906916;24;20059;-83
2022/02/13 19:22:48;;;;;;;59.45;31.58;;;;;;;3.54;100.00;99894.56;4793031;29;20058;-83
2022/02/13 19:25:14;;;;;;;55.40;30.02;;;;;;;3.25;100.00;99853.53;4788044;30;20062;-82
2022/02/13 19:30:25;;;;;;;66.60;31.40;;;;;;;3.11;100.00;99829.53;4812122;29;20034;-83
2022/02/13 19:32:50;;;;;;;66.10;32.05;;;;;;;2.96;100.00;99806.34;4805119;29;20043;-81
2022/02/13 19:35:16;;;;;;;56.88;30.95;;;;;;;4.12;100.00;99993.50;4807547;29;20039;-84
2022/02/13 19:37:43;;;;;;;54.20;29.10;;;;;;;3.06;100.00;99838.03;4789075;30;20042;-83
2022/02/13 19:42:39;;;;;;;54.53;29.35;;;;;;;4.11;100.00;100018.47;4789338;29;20050;-83
2022/02/13 19:45:06;;;;;;;55.08;29.33;;;;;;;2.52;100.00;99755.63;4795651;30;20050;-83
2022/02/13 19:55:09;;;;;;;55.90;28.95;;;;;;;2.64;100.00;99795.88;4774007;30;20064;-84
2022/02/13 19:57:34;;;;;;;60.92;29.23;;;;;;;2.67;100.00;99806.97;4783440;30;20050;-83
2022/02/13 20:00:00;;;;;;;58.13;29.73;;;;;;;2.33;100.00;99760.31;4792783;29;20092;-82
2022/02/13 20:02:26;;;;;;;55.78;27.60;;;;;;;2.86;100.00;99836.81;4773957;30;20070;-82
2022/02/13 20:04:52;;;;;;;52.30;29.23;;;;;;;4.03;100.00;100015.84;5252496;24;20107;-84
2022/02/13 20:07:17;;;;;;;63.20;29.55;;;;;;;4.02;100.00;100012.38;4809853;29;20035;-82
2022/02/13 20:09:43;;;;;;;56.75;29.38;;;;;;;3.98;100.00;100017.22;4805480;29;20108;-82
2022/02/13 20:12:09;;;;;;;60.42;28.83;;;;;;;4.00;100.00;100022.34;4786623;29;20074;-82
2022/02/13 20:14:45;;;;;;;69.80;30.02;;;;;;;3.78;100.00;99975.28;5273456;24;1521423;31
2022/02/13 21:16:39;;;;;;;47.65;24.73;;;;;;;3.73;100.00;99939.34;5651921;24;20164;-83
2022/02/13 21:19:05;;;;;;;62.25;27.23;;;;;;;3.81;100.00;99958.94;5227584;24;20115;-81
2022/02/13 21:21:32;;;;;;;46.42;23.45;;;;;;;2.51;100.00;99767.22;4853076;24;20165;-84
2022/02/13 21:23:58;;;;;;;46.33;23.13;;;;;;;2.43;100.00;99757.47;4807898;29;20020;-83
2022/02/13 21:26:26;;;;;;;42.85;24.73;;;;;;;2.18;100.00;99700.16;4809082;29;20023;-84
2022/02/13 21:29:01;;;;;;;53.40;23.20;;;;;;;1.76;100.00;99627.88;4808202;29;20035;-82
2022/02/13 21:31:29;;;;;;;;;;;;;;;3.78;100.00;99949.47;4807518;29;20162;-83
2022/02/13 21:33:55;;;;;;;52.38;23.00;;;;;;;2.74;100.00;99772.59;4808244;29;19917;-82
2022/02/13 21:36:20;;;;;;;47.47;22.15;;;;;;;1.94;100.00;99666.59;4795710;29;20031;-82
2022/02/13 21:38:46;;;;;;;51.83;24.02;;;;;;;2.03;100.00;99682.31;4788666;30;20032;-82
2022/02/13 21:41:12;;;;;;;55.72;23.73;;;;;;;3.72;100.00;99932.38;4799710;29;20528;-83
2022/02/13 21:43:37;;;;;;;51.05;22.98;;;;;;;2.22;100.00;99699.66;4810172;29;20019;-83
2022/02/13 21:46:04;;;;;;;49.22;22.55;;;;;;;1.92;100.00;99647.34;4808351;29;20039;-83
2022/02/13 21:48:30;;;;;;;48.22;21.17;;;;;;;3.73;100.00;99931.38;4808927;29;20020;-82
2022/02/13 21:50:55;;;;;;;53.05;20.73;;;;;;;3.76;100.00;99916.88;4823513;29;20039;-83
2022/02/13 21:53:22;;;;;;;42.35;19.10;;;;;;;3.76;100.00;99916.88;4820655;29;20026;-83
2022/02/13 21:55:47;;;;;;;41.35;20.00;;;;;;;3.79;100.00;99929.03;4816576;29;20302;-83
2022/02/13 21:58:13;;;;;;;46.20;19.90;;;;;;;3.78;100.00;99930.03;4804230;29;20043;-83
2022/02/13 22:00:39;;;;;;;38.00;19.20;;;;;;;3.70;100.00;99920.25;4798221;29;20035;-83
2022/02/13 22:03:04;;;;;;;40.65;18.65;;;;;;;3.60;100.00;99899.19;4803991;30;20089;-83
2022/02/13 22:05:30;;;;;;;42.15;18.70;;;;;;;3.81;100.00;99932.31;4819840;29;20048;-82
2022/02/13 22:07:56;;;;;;;36.03;16.88;;;;;;;3.82;100.00;99928.66;4808954;29;20039;-83
2022/02/13 22:10:22;;;;;;;41.65;17.60;;;;;;;3.82;100.00;99924.16;4823605;29;20051;-83
2022/02/13 22:12:47;;;;;;;42.08;17.58;;;;;;;3.82;100.00;99918.84;4808962;29;20047;-83
2022/02/13 22:15:13;;;;;;;38.72;16.95;;;;;;;3.87;100.00;99923.63;4793302;30;20031;-82
2022/02/13 22:17:38;;;;;;;41.10;16.67;;;;;;;3.87;100.00;99910.31;4815603;29;20031;-82
2022/02/13 22:20:06;;;;;;;42.92;17.70;;;;;;;3.89;100.00;99913.66;4831110;29;20129;-83
2022/02/13 22:22:31;;;;;;;42.40;16.60;;;;;;;3.88;100.00;99904.00;4822559;29;20012;-82
2022/02/13 22:24:57;;;;;;;37.10;16.55;;;;;;;3.90;100.00;99907.31;4775956;30;20036;-82
2022/02/13 22:27:22;;;;;;;37.42;15.25;;;;;;;3.93;100.00;99890.97;4804976;29;20043;-82
2022/02/13 22:29:48;;;;;;;36.97;15.50;;;;;;;3.90;100.00;99884.19;4809500;29;20043;-83
2022/02/13 22:32:14;;;;;;;33.35;15.52;;;;;;;3.96;100.00;99879.97;4812342;29;20026;-81
2022/02/13 22:34:39;;;;;;;33.83;14.27;;;;;;;3.98;100.00;99877.97;4827630;29;20655;-82
2022/02/13 22:37:05;;;;;;;32.72;14.18;;;;;;;4.00;100.00;99867.97;4823189;29;20070;-83
2022/02/13 22:39:31;;;;;;;35.28;15.45;;;;;;;4.01;100.00;99861.66;4808810;29;20089;-81
2022/02/13 22:41:58;;;;;;;30.85;13.85;;;;;;;3.96;100.00;99840.06;4808279;29;20038;-81
2022/02/13 22:44:24;;;;;;;29.35;13.75;;;;;;;4.04;100.00;99847.13;4821327;29;20031;-82
2022/02/13 22:46:49;;;;;;;32.92;13.65;;;;;;;4.01;100.00;99845.69;4793121;29;20044;-82
2022/02/13 22:49:14;;;;;;;36.38;13.50;;;;;;;3.93;100.00;99833.25;4800633;30;20051;-83
2022/02/13 22:51:40;;;;;;;33.50;12.88;;;;;;;3.93;100.00;99819.13;4807624;29;20047;-83
2022/02/13 22:54:05;;;;;;;32.30;11.95;;;;;;;4.09;100.00;99850.09;4807456;29;20090;-82
2022/02/13 22:56:31;;;;;;;32.42;12.25;;;;;;;4.10;100.00;99838.44;4811355;29;20031;-82
2022/02/13 22:58:56;;;;;;;29.33;12.48;;;;;;;4.12;100.00;99842.56;4829128;29;20051;-82
2022/02/13 23:01:21;;;;;;;35.10;12.10;;;;;;;4.12;100.00;99834.59;4794167;29;20107;-82
2022/02/13 23:06:32;;;;;;;44.83;13.10;;;;;;;4.02;100.00;99817.22;4789907;29;20050;-82
2022/02/13 23:14:29;;;;;;;34.97;11.40;;;;;;;4.11;100.00;99806.31;4805900;29;20148;-83
2022/02/13 23:16:54;;;;;;;25.50;10.95;;;;;;;4.13;100.00;99808.78;4791127;30;20069;-82
2022/02/13 23:19:19;;;;;;;23.92;10.20;;;;;;;4.15;100.00;99812.09;4808209;29;20040;-82
2022/02/13 23:21:45;;;;;;;30.50;11.85;;;;;;;4.14;100.00;99807.78;4789230;30;20097;-81
2022/02/13 23:24:11;;;;;;;29.90;12.05;;;;;;;4.16;100.00;99805.75;4787752;30;20096;-83
2022/02/13 23:26:36;;;;;;;25.95;11.18;;;;;;;4.09;100.00;99796.84;4820764;29;20039;-82
2022/02/13 23:29:01;;;;;;;27.58;11.73;;;;;;;4.17;100.00;99802.94;4826192;29;20010;-83
2022/02/13 23:31:27;;;;;;;33.65;11.77;;;;;;;4.12;100.00;99792.00;4803134;29;20390;-82
2022/02/13 23:33:52;;;;;;;28.83;10.57;;;;;;;4.17;100.00;99786.97;4821309;29;20046;-82
2022/02/13 23:36:17;;;;;;;29.42;10.32;;;;;;;4.18;100.00;99785.94;4825019;29;20055;-82
2022/02/13 23:38:44;;;;;;;26.08;11.07;;;;;;;4.20;100.00;99788.41;4813271;29;20485;-82
2022/02/13 23:41:09;;;;;;;33.95;10.77;;;;;;;4.20;100.00;99775.09;4790360;30;20032;-82
2022/02/13 23:43:34;;;;;;;26.23;10.15;;;;;;;4.03;100.00;99734.50;4806796;29;20036;-82
2022/02/13 23:46:00;;;;;;;22.70;9.13;;;;;;;4.09;100.00;99752.41;4822465;29;20094;-82
2022/02/13 23:48:25;;;;;;;26.08;9.60;;;;;;;4.11;100.00;99746.94;4787153;30;20108;-82
2022/02/13 23:50:51;;;;;;;28.85;9.15;;;;;;;4.13;100.00;99751.03;4787595;30;20070;-83
2022/02/13 23:53:16;;;;;;;27.30;10.40;;;;;;;4.18;100.00;99754.00;4791324;29;20027;-82
2022/02/13 23:55:42;;;;;;;26.58;9.30;;;;;;;4.19;100.00;99755.63;4803277;29;20066;-81
2022/02/13 23:58:07;;;;;;;26.65;9.07;;;;;;;4.17;100.00;99744.38;4816410;29;20042;-81
